Weather at Dawsons Airport

Public forecast

Using degrees Celsius for public forecast. Weather courtesy of forecast.io.

Closest aviation weather report (METAR) to Dawsons Airport

Report is more than 6 hours old.

Closest report is Robert Gabriel Mugabe International Airport, 56.8 nm (105.2 km) SSE. Retrieved 2021/06/19 07:00 UTC (18 hours ago):

FVRG 190700Z 13013KT 110V170 CAVOK 16/03 Q1033 NOSIG

Closest aviation forecast (TAF) to Dawsons Airport

Forecast is more than 12 hours old.

Closest forecast is Robert Gabriel Mugabe International Airport, 56.8 nm (105.2 km) SSE. Retrieved 2021/06/19 06:00 UTC (19 hours ago):

TAF FVRG 190400Z 1906/2012 13012KT CAVOK